Aviation Digital Data Service (ADDS)

Output produced by METARs form (1456 UTC 19 April 2019)
found at http://www.aviationweather.gov/metar/data/
 
METAR text: TLPL 191400Z 08021KT 9999 BKN029 29/22 Q1017 NOSIG
Conditions at: TLPL (HEWANORRA INTL , LC) observed 1400 UTC 19 April 2019
Temperature: 29.0°C (84°F)
Dewpoint: 22.0°C (72°F) [RH = 66%]
Pressure (altimeter): 30.03 inches Hg (1017.0 mb)
Winds: from the E (80 degrees) at 24 MPH (21 knots; 10.8 m/s)
Visibility: 6 or more miles (10+ km)
Ceiling: 2900 feet AGL
Clouds: broken clouds at 2900 feet AGL
Weather: no significant weather observed at this time

METAR text: TLPL 191300Z 09018KT 9999 FEW028 28/22 Q1017 NOSIG
Conditions at: TLPL (HEWANORRA INTL , LC) observed 1300 UTC 19 April 2019
Temperature: 28.0°C (82°F)
Dewpoint: 22.0°C (72°F) [RH = 70%]
Pressure (altimeter): 30.03 inches Hg (1017.0 mb)
Winds: from the E (90 degrees) at 21 MPH (18 knots; 9.3 m/s)
Visibility: 6 or more miles (10+ km)
Ceiling: at least 12,000 feet AGL
Clouds: few clouds at 2800 feet AGL
Weather: no significant weather observed at this time

METAR text: TLPL 191200Z 09017KT 9999 FEW028 27/22 Q1016 NOSIG
Conditions at: TLPL (HEWANORRA INTL , LC) observed 1200 UTC 19 April 2019
Temperature: 27.0°C (81°F)
Dewpoint: 22.0°C (72°F) [RH = 74%]
Pressure (altimeter): 30.00 inches Hg (1016.0 mb)
Winds: from the E (90 degrees) at 20 MPH (17 knots; 8.7 m/s)
Visibility: 6 or more miles (10+ km)
Ceiling: at least 12,000 feet AGL
Clouds: few clouds at 2800 feet AGL
Weather: no significant weather observed at this time

METAR text: TLPL 191100Z 08018KT 9999 FEW026 26/22 Q1015 NOSIG
Conditions at: TLPL (HEWANORRA INTL , LC) observed 1100 UTC 19 April 2019
Temperature: 26.0°C (79°F)
Dewpoint: 22.0°C (72°F) [RH = 79%]
Pressure (altimeter): 29.97 inches Hg (1015.0 mb)
Winds: from the E (80 degrees) at 21 MPH (18 knots; 9.3 m/s)
Visibility: 6 or more miles (10+ km)
Ceiling: at least 12,000 feet AGL
Clouds: few clouds at 2600 feet AGL
Weather: no significant weather observed at this time

METAR text: TLPL 191000Z 08019KT 9999 FEW025 26/22 Q1015 NOSIG
Conditions at: TLPL (HEWANORRA INTL , LC) observed 1000 UTC 19 April 2019
Temperature: 26.0°C (79°F)
Dewpoint: 22.0°C (72°F) [RH = 79%]
Pressure (altimeter): 29.97 inches Hg (1015.0 mb)
Winds: from the E (80 degrees) at 22 MPH (19 knots; 9.8 m/s)
Visibility: 6 or more miles (10+ km)
Ceiling: at least 12,000 feet AGL
Clouds: few clouds at 2500 feet AGL
Weather: no significant weather observed at this time

METAR text: TLPL 190900Z 08018KT 9999 FEW025 26/21 Q1014 NOSIG
Conditions at: TLPL (HEWANORRA INTL , LC) observed 0900 UTC 19 April 2019
Temperature: 26.0°C (79°F)
Dewpoint: 21.0°C (70°F) [RH = 74%]
Pressure (altimeter): 29.94 inches Hg (1014.0 mb)
Winds: from the E (80 degrees) at 21 MPH (18 knots; 9.3 m/s)
Visibility: 6 or more miles (10+ km)
Ceiling: at least 12,000 feet AGL
Clouds: few clouds at 2500 feet AGL
Weather: no significant weather observed at this time

METAR text: TLPL 190800Z 08016KT 9999 FEW025 26/22 Q1014 NOSIG
Conditions at: TLPL (HEWANORRA INTL , LC) observed 0800 UTC 19 April 2019
Temperature: 26.0°C (79°F)
Dewpoint: 22.0°C (72°F) [RH = 79%]
Pressure (altimeter): 29.94 inches Hg (1014.0 mb)
Winds: from the E (80 degrees) at 18 MPH (16 knots; 8.2 m/s)
Visibility: 6 or more miles (10+ km)
Ceiling: at least 12,000 feet AGL
Clouds: few clouds at 2500 feet AGL
Weather: no significant weather observed at this time

METAR text: TLPL 190700Z 08017KT 9999 FEW025 26/22 Q1014 NOSIG
Conditions at: TLPL (HEWANORRA INTL , LC) observed 0700 UTC 19 April 2019
Temperature: 26.0°C (79°F)
Dewpoint: 22.0°C (72°F) [RH = 79%]
Pressure (altimeter): 29.94 inches Hg (1014.0 mb)
Winds: from the E (80 degrees) at 20 MPH (17 knots; 8.7 m/s)
Visibility: 6 or more miles (10+ km)
Ceiling: at least 12,000 feet AGL
Clouds: few clouds at 2500 feet AGL
Weather: no significant weather observed at this time

METAR text: TLPL 190600Z 08017KT 9999 FEW025 26/22 Q1014 NOSIG
Conditions at: TLPL (HEWANORRA INTL , LC) observed 0600 UTC 19 April 2019
Temperature: 26.0°C (79°F)
Dewpoint: 22.0°C (72°F) [RH = 79%]
Pressure (altimeter): 29.94 inches Hg (1014.0 mb)
Winds: from the E (80 degrees) at 20 MPH (17 knots; 8.7 m/s)
Visibility: 6 or more miles (10+ km)
Ceiling: at least 12,000 feet AGL
Clouds: few clouds at 2500 feet AGL
Weather: no significant weather observed at this time

METAR text: TLPL 190500Z 08018KT 9999 FEW025 26/22 Q1015 NOSIG
Conditions at: TLPL (HEWANORRA INTL , LC) observed 0500 UTC 19 April 2019
Temperature: 26.0°C (79°F)
Dewpoint: 22.0°C (72°F) [RH = 79%]
Pressure (altimeter): 29.97 inches Hg (1015.0 mb)
Winds: from the E (80 degrees) at 21 MPH (18 knots; 9.3 m/s)
Visibility: 6 or more miles (10+ km)
Ceiling: at least 12,000 feet AGL
Clouds: few clouds at 2500 feet AGL
Weather: no significant weather observed at this time

METAR text: TLPL 190400Z 09018KT 9999 SCT025 26/22 Q1015 NOSIG
Conditions at: TLPL (HEWANORRA INTL , LC) observed 0400 UTC 19 April 2019
Temperature: 26.0°C (79°F)
Dewpoint: 22.0°C (72°F) [RH = 79%]
Pressure (altimeter): 29.97 inches Hg (1015.0 mb)
Winds: from the E (90 degrees) at 21 MPH (18 knots; 9.3 m/s)
Visibility: 6 or more miles (10+ km)
Ceiling: at least 12,000 feet AGL
Clouds: scattered clouds at 2500 feet AGL
Weather: no significant weather observed at this time

METAR text: TLPL 190300Z 08016KT 9999 FEW026 26/22 Q1016 NOSIG
Conditions at: TLPL (HEWANORRA INTL , LC) observed 0300 UTC 19 April 2019
Temperature: 26.0°C (79°F)
Dewpoint: 22.0°C (72°F) [RH = 79%]
Pressure (altimeter): 30.00 inches Hg (1016.0 mb)
Winds: from the E (80 degrees) at 18 MPH (16 knots; 8.2 m/s)
Visibility: 6 or more miles (10+ km)
Ceiling: at least 12,000 feet AGL
Clouds: few clouds at 2600 feet AGL
Weather: no significant weather observed at this time

METAR text: TLPL 190200Z 08015KT 9999 FEW025 26/22 Q1015 NOSIG
Conditions at: TLPL (HEWANORRA INTL , LC) observed 0200 UTC 19 April 2019
Temperature: 26.0°C (79°F)
Dewpoint: 22.0°C (72°F) [RH = 79%]
Pressure (altimeter): 29.97 inches Hg (1015.0 mb)
Winds: from the E (80 degrees) at 17 MPH (15 knots; 7.7 m/s)
Visibility: 6 or more miles (10+ km)
Ceiling: at least 12,000 feet AGL
Clouds: few clouds at 2500 feet AGL
Weather: no significant weather observed at this time

METAR text: TLPL 190100Z 08018KT 9999 FEW025 26/22 Q1015 NOSIG
Conditions at: TLPL (HEWANORRA INTL , LC) observed 0100 UTC 19 April 2019
Temperature: 26.0°C (79°F)
Dewpoint: 22.0°C (72°F) [RH = 79%]
Pressure (altimeter): 29.97 inches Hg (1015.0 mb)
Winds: from the E (80 degrees) at 21 MPH (18 knots; 9.3 m/s)
Visibility: 6 or more miles (10+ km)
Ceiling: at least 12,000 feet AGL
Clouds: few clouds at 2500 feet AGL
Weather: no significant weather observed at this time

METAR text: TLPL 190000Z 08018KT 9999 FEW026 26/22 Q1015 NOSIG
Conditions at: TLPL (HEWANORRA INTL , LC) observed 0000 UTC 19 April 2019
Temperature: 26.0°C (79°F)
Dewpoint: 22.0°C (72°F) [RH = 79%]
Pressure (altimeter): 29.97 inches Hg (1015.0 mb)
Winds: from the E (80 degrees) at 21 MPH (18 knots; 9.3 m/s)
Visibility: 6 or more miles (10+ km)
Ceiling: at least 12,000 feet AGL
Clouds: few clouds at 2600 feet AGL
Weather: no significant weather observed at this time

METAR text: TLPL 182300Z 08014KT 9999 SCT026 27/22 Q1014 NOSIG
Conditions at: TLPL (HEWANORRA INTL , LC) observed 2300 UTC 18 April 2019
Temperature: 27.0°C (81°F)
Dewpoint: 22.0°C (72°F) [RH = 74%]
Pressure (altimeter): 29.94 inches Hg (1014.0 mb)
Winds: from the E (80 degrees) at 16 MPH (14 knots; 7.2 m/s)
Visibility: 6 or more miles (10+ km)
Ceiling: at least 12,000 feet AGL
Clouds: scattered clouds at 2600 feet AGL
Weather: no significant weather observed at this time

METAR text: TLPL 182200Z 08015KT 9999 FEW026 27/23 Q1013 NOSIG
Conditions at: TLPL (HEWANORRA INTL , LC) observed 2200 UTC 18 April 2019
Temperature: 27.0°C (81°F)
Dewpoint: 23.0°C (73°F) [RH = 79%]
Pressure (altimeter): 29.91 inches Hg (1013.0 mb)
Winds: from the E (80 degrees) at 17 MPH (15 knots; 7.7 m/s)
Visibility: 6 or more miles (10+ km)
Ceiling: at least 12,000 feet AGL
Clouds: few clouds at 2600 feet AGL
Weather: no significant weather observed at this time

METAR text: TLPL 182100Z 09015KT 9999 FEW027 28/23 Q1013 NOSIG
Conditions at: TLPL (HEWANORRA INTL , LC) observed 2100 UTC 18 April 2019
Temperature: 28.0°C (82°F)
Dewpoint: 23.0°C (73°F) [RH = 74%]
Pressure (altimeter): 29.91 inches Hg (1013.0 mb)
Winds: from the E (90 degrees) at 17 MPH (15 knots; 7.7 m/s)
Visibility: 6 or more miles (10+ km)
Ceiling: at least 12,000 feet AGL
Clouds: few clouds at 2700 feet AGL
Weather: no significant weather observed at this time

METAR text: TLPL 182000Z 08014KT 9999 FEW027 BKN044 28/22 Q1013 NOSIG
Conditions at: TLPL (HEWANORRA INTL , LC) observed 2000 UTC 18 April 2019
Temperature: 28.0°C (82°F)
Dewpoint: 22.0°C (72°F) [RH = 70%]
Pressure (altimeter): 29.91 inches Hg (1013.0 mb)
Winds: from the E (80 degrees) at 16 MPH (14 knots; 7.2 m/s)
Visibility: 6 or more miles (10+ km)
Ceiling: 4400 feet AGL
Clouds: few clouds at 2700 feet AGL
broken clouds at 4400 feet AGL
Weather: no significant weather observed at this time

METAR text: TLPL 181800Z 11014KT 9999 FEW027 BKN044 28/22 Q1014 NOSIG
Conditions at: TLPL (HEWANORRA INTL , LC) observed 1800 UTC 18 April 2019
Temperature: 28.0°C (82°F)
Dewpoint: 22.0°C (72°F) [RH = 70%]
Pressure (altimeter): 29.94 inches Hg (1014.0 mb)
Winds: from the ESE (110 degrees) at 16 MPH (14 knots; 7.2 m/s)
Visibility: 6 or more miles (10+ km)
Ceiling: 4400 feet AGL
Clouds: few clouds at 2700 feet AGL
broken clouds at 4400 feet AGL
Weather: no significant weather observed at this time

METAR text: TLPL 181700Z 10016KT 9999 FEW028 BKN044 28/23 Q1015 NOSIG
Conditions at: TLPL (HEWANORRA INTL , LC) observed 1700 UTC 18 April 2019
Temperature: 28.0°C (82°F)
Dewpoint: 23.0°C (73°F) [RH = 74%]
Pressure (altimeter): 29.97 inches Hg (1015.0 mb)
Winds: from the E (100 degrees) at 18 MPH (16 knots; 8.2 m/s)
Visibility: 6 or more miles (10+ km)
Ceiling: 4400 feet AGL
Clouds: few clouds at 2800 feet AGL
broken clouds at 4400 feet AGL
Weather: no significant weather observed at this time

METAR text: TLPL 181600Z 12017KT 9999 FEW027 BKN042 28/20 Q1016 NOSIG
Conditions at: TLPL (HEWANORRA INTL , LC) observed 1600 UTC 18 April 2019
Temperature: 28.0°C (82°F)
Dewpoint: 20.0°C (68°F) [RH = 62%]
Pressure (altimeter): 30.00 inches Hg (1016.0 mb)
Winds: from the ESE (120 degrees) at 20 MPH (17 knots; 8.7 m/s)
Visibility: 6 or more miles (10+ km)
Ceiling: 4200 feet AGL
Clouds: few clouds at 2700 feet AGL
broken clouds at 4200 feet AGL
Weather: no significant weather observed at this time

METAR text: TLPL 181500Z 12020KT 9999 FEW025 BKN041 27/21 Q1016 NOSIG
Conditions at: TLPL (HEWANORRA INTL , LC) observed 1500 UTC 18 April 2019
Temperature: 27.0°C (81°F)
Dewpoint: 21.0°C (70°F) [RH = 70%]
Pressure (altimeter): 30.00 inches Hg (1016.0 mb)
Winds: from the ESE (120 degrees) at 23 MPH (20 knots; 10.3 m/s)
Visibility: 6 or more miles (10+ km)
Ceiling: 4100 feet AGL
Clouds: few clouds at 2500 feet AGL
broken clouds at 4100 feet AGL
Weather: no significant weather observed at this time

METAR text: TLPL 181400Z 09023KT 9999 FEW024 BKN040 27/21 Q1016 NOSIG
Conditions at: TLPL (HEWANORRA INTL , LC) observed 1400 UTC 18 April 2019
Temperature: 27.0°C (81°F)
Dewpoint: 21.0°C (70°F) [RH = 70%]
Pressure (altimeter): 30.00 inches Hg (1016.0 mb)
Winds: from the E (90 degrees) at 26 MPH (23 knots; 11.8 m/s)
Visibility: 6 or more miles (10+ km)
Ceiling: 4000 feet AGL
Clouds: few clouds at 2400 feet AGL
broken clouds at 4000 feet AGL
Weather: no significant weather observed at this time

METAR text: TLPL 191300Z 09021KT 9999 FEW022 BKN039 26/22 Q1016 NOSIG
Conditions at: TLPL (HEWANORRA INTL , LC) observed 1300 UTC 18 April 2019
Temperature: 26.0°C (79°F)
Dewpoint: 22.0°C (72°F) [RH = 79%]
Pressure (altimeter): 30.00 inches Hg (1016.0 mb)
Winds: from the E (90 degrees) at 24 MPH (21 knots; 10.8 m/s)
Visibility: 6 or more miles (10+ km)
Ceiling: 3900 feet AGL
Clouds: few clouds at 2200 feet AGL
broken clouds at 3900 feet AGL
Weather: no significant weather observed at this time

METAR text: TLPL 181200Z 08018KT 9999 FEW021 BKN040 26/22 Q1015 NOSIG
Conditions at: TLPL (HEWANORRA INTL , LC) observed 1200 UTC 18 April 2019
Temperature: 26.0°C (79°F)
Dewpoint: 22.0°C (72°F) [RH = 79%]
Pressure (altimeter): 29.97 inches Hg (1015.0 mb)
Winds: from the E (80 degrees) at 21 MPH (18 knots; 9.3 m/s)
Visibility: 6 or more miles (10+ km)
Ceiling: 4000 feet AGL
Clouds: few clouds at 2100 feet AGL
broken clouds at 4000 feet AGL
Weather: no significant weather observed at this time

METAR text: TLPL 181100Z 08017KT 9999 FEW018 BKN022 26/22 Q1014 TEMPO SHRA
Conditions at: TLPL (HEWANORRA INTL , LC) observed 1100 UTC 18 April 2019
Temperature: 26.0°C (79°F)
Dewpoint: 22.0°C (72°F) [RH = 79%]
Pressure (altimeter): 29.94 inches Hg (1014.0 mb)
Winds: from the E (80 degrees) at 20 MPH (17 knots; 8.7 m/s)
Visibility: 6 or more miles (10+ km)
Ceiling: 2200 feet AGL
Clouds: few clouds at 1800 feet AGL
broken clouds at 2200 feet AGL
Weather: no significant weather observed at this time

METAR text: TLPL 181000Z 08017KT 9999 FEW015 BKN040 26/22 Q1013 NOSIG
Conditions at: TLPL (HEWANORRA INTL , LC) observed 1000 UTC 18 April 2019
Temperature: 26.0°C (79°F)
Dewpoint: 22.0°C (72°F) [RH = 79%]
Pressure (altimeter): 29.91 inches Hg (1013.0 mb)
Winds: from the E (80 degrees) at 20 MPH (17 knots; 8.7 m/s)
Visibility: 6 or more miles (10+ km)
Ceiling: 4000 feet AGL
Clouds: few clouds at 1500 feet AGL
broken clouds at 4000 feet AGL
Weather: no significant weather observed at this time

METAR text: TLPL 180900Z 09014KT 9999 FEW021 BKN040 26/22 Q1013 NOSIG
Conditions at: TLPL (HEWANORRA INTL , LC) observed 0900 UTC 18 April 2019
Temperature: 26.0°C (79°F)
Dewpoint: 22.0°C (72°F) [RH = 79%]
Pressure (altimeter): 29.91 inches Hg (1013.0 mb)
Winds: from the E (90 degrees) at 16 MPH (14 knots; 7.2 m/s)
Visibility: 6 or more miles (10+ km)
Ceiling: 4000 feet AGL
Clouds: few clouds at 2100 feet AGL
broken clouds at 4000 feet AGL
Weather: no significant weather observed at this time

METAR text: TLPL 180800Z 08015KT 9999 FEW020 25/22 Q1012 NOSIG
Conditions at: TLPL (HEWANORRA INTL , LC) observed 0800 UTC 18 April 2019
Temperature: 25.0°C (77°F)
Dewpoint: 22.0°C (72°F) [RH = 83%]
Pressure (altimeter): 29.88 inches Hg (1012.0 mb)
Winds: from the E (80 degrees) at 17 MPH (15 knots; 7.7 m/s)
Visibility: 6 or more miles (10+ km)
Ceiling: at least 12,000 feet AGL
Clouds: few clouds at 2000 feet AGL
Weather: no significant weather observed at this time

METAR text: TLPL 180700Z 08019G30KT 9999 -SHRA BKN018 25/23 Q1012 TEMPO SHRA
Conditions at: TLPL (HEWANORRA INTL , LC) observed 0700 UTC 18 April 2019
Temperature: 25.0°C (77°F)
Dewpoint: 23.0°C (73°F) [RH = 89%]
Pressure (altimeter): 29.88 inches Hg (1012.0 mb)
Winds: from the E (80 degrees) at 22 MPH (19 knots; 9.8 m/s)
gusting to 34 MPH (30 knots; 15.4 m/s)
Visibility: 6 or more miles (10+ km)
Ceiling: 1800 feet AGL
Clouds: broken clouds at 1800 feet AGL
Weather: -SHRA  (light rain showers)

METAR text: TLPL 180600Z 08017KT 9999 BKN020 25/22 Q1013 NOSIG
Conditions at: TLPL (HEWANORRA INTL , LC) observed 0600 UTC 18 April 2019
Temperature: 25.0°C (77°F)
Dewpoint: 22.0°C (72°F) [RH = 83%]
Pressure (altimeter): 29.91 inches Hg (1013.0 mb)
Winds: from the E (80 degrees) at 20 MPH (17 knots; 8.7 m/s)
Visibility: 6 or more miles (10+ km)
Ceiling: 2000 feet AGL
Clouds: broken clouds at 2000 feet AGL
Weather: no significant weather observed at this time

METAR text: TLPL 180500Z 08015KT 9999 SCT020 25/22 Q1014 NOSIG
Conditions at: TLPL (HEWANORRA INTL , LC) observed 0500 UTC 18 April 2019
Temperature: 25.0°C (77°F)
Dewpoint: 22.0°C (72°F) [RH = 83%]
Pressure (altimeter): 29.94 inches Hg (1014.0 mb)
Winds: from the E (80 degrees) at 17 MPH (15 knots; 7.7 m/s)
Visibility: 6 or more miles (10+ km)
Ceiling: at least 12,000 feet AGL
Clouds: scattered clouds at 2000 feet AGL
Weather: no significant weather observed at this time

METAR text: TLPL 180400Z 08018KT 9999 BKN018 26/23 Q1014 TEMPO SHRA
Conditions at: TLPL (HEWANORRA INTL , LC) observed 0400 UTC 18 April 2019
Temperature: 26.0°C (79°F)
Dewpoint: 23.0°C (73°F) [RH = 84%]
Pressure (altimeter): 29.94 inches Hg (1014.0 mb)
Winds: from the E (80 degrees) at 21 MPH (18 knots; 9.3 m/s)
Visibility: 6 or more miles (10+ km)
Ceiling: 1800 feet AGL
Clouds: broken clouds at 1800 feet AGL
Weather: no significant weather observed at this time

METAR text: TLPL 180300Z 09021KT 9999 BKN024 26/22 Q1015 TEMPO SHRA
Conditions at: TLPL (HEWANORRA INTL , LC) observed 0300 UTC 18 April 2019
Temperature: 26.0°C (79°F)
Dewpoint: 22.0°C (72°F) [RH = 79%]
Pressure (altimeter): 29.97 inches Hg (1015.0 mb)
Winds: from the E (90 degrees) at 24 MPH (21 knots; 10.8 m/s)
Visibility: 6 or more miles (10+ km)
Ceiling: 2400 feet AGL
Clouds: broken clouds at 2400 feet AGL
Weather: no significant weather observed at this time

Forecast for: TLPL (HEWANORRA INTL , LC)
Text: TLPL 191100Z 1912/2012 08018KT 9999 SCT026
Forecast period: 1200 UTC 19 April 2019 to 1200 UTC 20 April 2019
Forecast type: FROM: standard forecast or significant change
Winds: from the E (80 degrees) at 21 MPH (18 knots; 9.3 m/s)
Visibility: 6 or more miles 10+ km)
Ceiling: at least 12,000 feet AGL
Clouds: scattered clouds at 2600 feet AGL
Weather: no significant weather forecast for this period
Text: PROB30
Forecast period: 1500 UTC 19 April 2019 to 1200 UTC 20 April 2019
Forecast type: TEMPORARY: The following changes expected for less than half the time period
Visibility: missing
Ceiling: unknown
Clouds: missing
Weather: SHRA  (rain showers)